Pagrindinis puslapis
METAR-TAF:

METAR-TAF

Oro uostai :

Alžyras, Alžyras

platuma: 36-43N, ilguma: 003-15E, Aukštis: 25 m

Dabartinis oras

Ataskaita buvo paskelbta 21 minutes, ne 04:30 UTC
Vėjas 2 kt nuo kintamojo kryptimis
Temperatūra 21°C
Drėgmė 88%
Slėgis 1013 hPa
Matomumas 10 km arba daugiau
Mažai debesys ne aukštis 2000 ft

METAR: DAAG 180430Z VRB02KT 9999 FEW020 21/19 Q1013

Laikas: 05:51 (04:51 UTC)

Prognozė

Ataskaita buvo paskelbta 5 valandos ir 51 minutes, ne 23:00 UTC
Prognozė galioja nuo 18 metu 00 UTC su 18 metu 24 UTC
Vėjas 2 kt nuo kintamojo kryptimis
Matomumas: 8000 m
Mažai debesys ne aukštis 2000 ft
Išsisklaidę debesys ne aukštis 8600 ft
Tapsmas
nuo 18 metu 09 UTC su 18 metu 12 UTC
Vėjas 10 kt iš Šiaurės Rytų
Tikimybė 40% :
Laikinai
nuo 18 metu 10 UTC su 18 metu 15 UTC
Mažai debesys ne aukštis 3000 ft, Liūtiniai kamuoliniai debesys.

TAF: DAAG 172300Z 1800/1824 VRB02KT 8000 FEW020 SCT086 BECMG 1809/1812 04010KT PROB40 TEMPO 1810/1815 FEW030CB

Orai ataskaitas ir orų prognozės (METAR, TAF).

turimą stotys yra geltonos ir raudonos taškus žemėlapyje.

Perkelti pele per norėdami pamatyti stoties vardą.

Tada spustelėkite, norėdami matyti oro stebėjimo ir prognozės.

Norėdami pakeisti žemėlapį: spustelėkite ant žalios mygtukų su juodo kryžiaus žemyn,; žalią mygtuką su brūkšneliu, jei norite nutolinti; arba žalių rodyklių gretimoms žemėlapius.


METAR-TAF: